createdAt,value
2022-11-29T05:01:02.139Z,11.02
2022-11-29T05:03:35.536Z,12.95
2022-11-29T05:06:24.939Z,10.77
2022-11-29T05:08:58.120Z,12.93
2022-11-29T05:11:43.134Z,17.20
2022-11-29T05:14:09.448Z,15.27
2022-11-29T05:16:35.753Z,14.68
2022-11-29T05:19:02.094Z,13.02
2022-11-29T05:21:34.510Z,11.48
2022-11-29T05:24:14.716Z,13.75
2022-11-29T05:26:54.970Z,19.23
2022-11-29T05:29:53.516Z,15.43
2022-11-29T05:32:22.893Z,15.85
2022-11-29T05:34:49.368Z,16.25
2022-11-29T05:37:18.682Z,16.45
2022-11-29T05:40:05.286Z,15.50
2022-11-29T05:42:31.657Z,14.68
2022-11-29T05:45:04.741Z,17.13
2022-11-29T05:47:42.619Z,13.10
2022-11-29T05:50:19.007Z,16.55
2022-11-29T05:52:45.350Z,12.25
2022-11-29T05:55:14.764Z,12.90
2022-11-29T05:57:53.657Z,12.85
2022-11-29T06:00:20.182Z,14.98
2022-11-29T06:02:51.399Z,14.93
2022-11-29T06:05:24.046Z,13.98
2022-11-29T06:08:02.502Z,14.35
2022-11-29T06:10:32.758Z,17.25
2022-11-29T06:13:08.203Z,15.07
2022-11-29T06:18:22.790Z,17.00
2022-11-29T06:20:49.091Z,24.15
2022-11-29T06:23:15.471Z,18.17
2022-11-29T06:26:04.133Z,13.93
2022-11-29T06:28:30.773Z,21.08
2022-11-29T06:31:15.107Z,19.23
2022-11-29T06:33:50.772Z,12.95
2022-11-29T06:36:26.175Z,17.40
2022-11-29T06:41:21.673Z,14.40
2022-11-29T06:43:48.516Z,14.13
2022-11-29T06:46:14.951Z,17.38
2022-11-29T06:48:51.642Z,12.98
2022-11-29T06:51:25.156Z,16.98
2022-11-29T06:53:57.266Z,17.90
2022-11-29T06:56:29.675Z,16.83
2022-11-29T06:59:02.088Z,15.70
2022-11-29T07:01:31.483Z,16.58
2022-11-29T07:04:04.091Z,14.20
2022-11-29T07:06:32.006Z,12.75
2022-11-29T07:09:00.581Z,14.80
2022-11-29T07:11:27.925Z,18.85
2022-11-29T07:13:54.424Z,23.58
2022-11-29T07:16:35.952Z,18.65
2022-11-29T07:19:02.376Z,17.50
2022-11-29T07:21:44.214Z,14.50
2022-11-29T07:24:22.943Z,16.83
2022-11-29T07:26:49.275Z,13.45
2022-11-29T07:29:28.676Z,19.98
2022-11-29T07:31:55.059Z,26.85
2022-11-29T07:34:41.688Z,17.30
2022-11-29T07:37:11.193Z,28.65
2022-11-29T07:40:10.148Z,24.77
2022-11-29T07:42:48.866Z,21.83
2022-11-29T07:45:23.930Z,22.83
2022-11-29T07:47:50.425Z,21.98
2022-11-29T07:50:16.992Z,20.90
2022-11-29T07:52:43.700Z,28.08
2022-11-29T07:55:29.697Z,20.50
2022-11-29T07:57:56.122Z,27.30
2022-11-29T08:00:22.760Z,19.30
2022-11-29T08:02:49.916Z,18.35
2022-11-29T08:05:19.340Z,23.23
2022-11-29T08:07:47.362Z,25.08
2022-11-29T08:10:15.176Z,27.65
2022-11-29T08:12:42.761Z,25.35
2022-11-29T08:15:09.484Z,39.42
2022-11-29T08:17:37.042Z,29.65
2022-11-29T08:20:04.437Z,32.95
2022-11-29T08:22:31.047Z,21.75
2022-11-29T08:24:58.533Z,25.77
2022-11-29T08:27:24.934Z,26.50
2022-11-29T08:29:51.355Z,22.75
2022-11-29T08:32:17.830Z,28.50
2022-11-29T08:34:44.680Z,20.67
2022-11-29T08:37:11.238Z,21.58
2022-11-29T08:39:37.678Z,21.08
2022-11-29T08:42:04.224Z,33.88
2022-11-29T08:44:30.612Z,33.13
2022-11-29T08:47:17.399Z,37.60
2022-11-29T08:50:01.787Z,37.63
2022-11-29T08:52:50.977Z,35.88
2022-11-29T08:55:18.870Z,36.10
2022-11-29T08:57:45.383Z,33.25
2022-11-29T09:00:13.751Z,33.45
2022-11-29T09:02:40.308Z,34.28
2022-11-29T09:05:07.431Z,33.22
2022-11-29T09:07:33.863Z,30.02
2022-11-29T09:10:05.040Z,26.73
2022-11-29T09:12:32.701Z,29.35
2022-11-29T09:14:59.161Z,26.30
2022-11-29T09:17:25.656Z,28.98
2022-11-29T09:19:52.120Z,27.15
2022-11-29T09:22:18.620Z,33.05
2022-11-29T09:24:46.893Z,29.90
2022-11-29T09:27:13.600Z,34.45
2022-11-29T09:29:40.081Z,34.78
2022-11-29T09:32:06.587Z,32.80
2022-11-29T09:34:33.016Z,39.63
2022-11-29T09:36:59.423Z,40.22
2022-11-29T09:39:26.233Z,35.75
2022-11-29T09:42:04.578Z,37.22
2022-11-29T09:44:42.051Z,46.85
2022-11-29T09:47:15.666Z,42.08
2022-11-29T09:49:49.234Z,44.88
2022-11-29T09:52:24.691Z,45.47
2022-11-29T09:57:19.246Z,44.95
2022-11-29T09:59:47.956Z,49.53
2022-11-29T10:02:24.635Z,51.05
2022-11-29T10:04:56.781Z,56.63
2022-11-29T10:07:39.104Z,47.53
2022-11-29T10:10:17.168Z,47.63
2022-11-29T10:12:49.390Z,39.65
2022-11-29T10:15:17.032Z,47.70
2022-11-29T10:18:01.988Z,43.35
2022-11-29T10:20:34.253Z,38.00
2022-11-29T10:23:21.604Z,42.20
2022-11-29T10:25:50.036Z,45.15
2022-11-29T10:28:18.612Z,46.25
2022-11-29T10:30:45.060Z,46.80
2022-11-29T10:33:21.975Z,47.22
2022-11-29T10:35:50.483Z,40.00
2022-11-29T10:38:32.522Z,42.60
2022-11-29T10:41:05.914Z,38.10
2022-11-29T10:43:32.343Z,37.83
2022-11-29T10:45:59.058Z,37.17
2022-11-29T10:48:27.741Z,36.28
2022-11-29T10:50:54.304Z,39.25
2022-11-29T10:53:40.925Z,38.13
2022-11-29T10:56:24.036Z,36.92
2022-11-29T10:59:13.489Z,37.67
2022-11-29T11:01:43.899Z,31.63
2022-11-29T11:04:22.504Z,35.47
2022-11-29T11:06:51.523Z,34.20
2022-11-29T11:09:22.716Z,34.33
2022-11-29T11:11:53.639Z,31.30
2022-11-29T11:14:27.189Z,33.88
2022-11-29T11:16:54.102Z,27.42
2022-11-29T11:19:28.847Z,32.58
2022-11-29T11:21:56.349Z,35.53
2022-11-29T11:24:30.969Z,34.85
2022-11-29T11:26:57.681Z,30.30
2022-11-29T11:29:32.234Z,35.35
2022-11-29T11:31:59.487Z,38.30
2022-11-29T11:34:27.819Z,49.35
2022-11-29T11:37:11.030Z,38.45
2022-11-29T11:39:37.403Z,35.53
2022-11-29T11:42:22.457Z,41.92
2022-11-29T11:44:50.412Z,35.28
2022-11-29T11:47:19.408Z,40.95
2022-11-29T11:50:02.129Z,40.47
2022-11-29T11:52:30.224Z,35.45
2022-11-29T11:55:22.488Z,36.45
2022-11-29T11:58:16.205Z,32.83
2022-11-29T12:01:03.898Z,34.42
2022-11-29T12:03:43.468Z,35.05
2022-11-29T12:06:28.762Z,33.83
2022-11-29T12:08:59.410Z,36.03
2022-11-29T12:11:26.376Z,37.85
2022-11-29T12:13:55.419Z,30.88
2022-11-29T12:16:28.322Z,36.15
2022-11-29T12:19:14.964Z,34.13
2022-11-29T12:21:43.372Z,37.67
2022-11-29T12:24:26.548Z,39.40
2022-11-29T12:26:58.016Z,36.83
2022-11-29T12:29:27.244Z,34.72
2022-11-29T12:32:13.505Z,35.67
2022-11-29T12:34:58.138Z,32.70
2022-11-29T12:37:24.507Z,29.25
2022-11-29T12:40:00.087Z,26.90
2022-11-29T12:42:26.572Z,27.63
2022-11-29T12:45:11.718Z,29.20
2022-11-29T12:47:38.204Z,34.55
2022-11-29T12:50:07.694Z,36.60
2022-11-29T12:52:43.712Z,33.78
2022-11-29T12:55:28.791Z,30.73
2022-11-29T12:58:06.858Z,33.33
2022-11-29T13:00:39.169Z,30.52
2022-11-29T13:03:19.815Z,32.63
2022-11-29T13:05:46.212Z,28.52
2022-11-29T13:08:21.572Z,28.65
2022-11-29T13:11:11.186Z,29.55
2022-11-29T13:13:45.963Z,29.35
2022-11-29T13:19:19.017Z,31.83
2022-11-29T13:21:57.686Z,25.77
2022-11-29T13:24:31.463Z,27.15
2022-11-29T13:26:58.040Z,28.00
2022-11-29T13:29:24.746Z,24.55
2022-11-29T13:31:51.501Z,26.25
2022-11-29T13:34:21.867Z,26.13
2022-11-29T13:36:54.200Z,25.52
2022-11-29T13:39:20.555Z,22.25
2022-11-29T13:42:16.477Z,27.70
2022-11-29T13:44:52.836Z,27.77
2022-11-29T13:47:19.771Z,25.90
2022-11-29T13:49:55.231Z,27.23
2022-11-29T13:54:47.895Z,23.40
2022-11-29T13:57:14.464Z,29.05
2022-11-29T13:59:48.051Z,24.13
2022-11-29T14:02:28.663Z,22.80
2022-11-29T14:04:55.251Z,30.40
2022-11-29T14:07:21.733Z,31.65
2022-11-29T14:09:59.519Z,29.15
2022-11-29T14:12:35.957Z,26.45
2022-11-29T14:15:22.784Z,27.20
2022-11-29T14:17:52.678Z,30.30
2022-11-29T14:20:25.265Z,30.38
2022-11-29T14:23:03.872Z,31.60
2022-11-29T14:28:17.252Z,27.75
2022-11-29T14:30:48.209Z,32.55
2022-11-29T14:33:17.642Z,29.23
2022-11-29T14:35:47.140Z,29.20
2022-11-29T14:38:31.180Z,26.65
2022-11-29T14:41:05.956Z,29.70
2022-11-29T14:43:36.480Z,27.10
2022-11-29T14:46:26.167Z,26.83
2022-11-29T14:48:55.482Z,25.65
2022-11-29T14:51:23.036Z,28.23
2022-11-29T14:53:59.911Z,29.88
2022-11-29T14:56:29.646Z,28.77
2022-11-29T14:59:14.629Z,30.27
2022-11-29T15:01:43.028Z,34.23
2022-11-29T15:04:09.771Z,30.77
2022-11-29T15:06:41.652Z,30.48
2022-11-29T15:11:57.790Z,33.20
2022-11-29T15:14:41.484Z,29.95
2022-11-29T15:17:30.478Z,34.03
2022-11-29T15:19:56.843Z,34.17
2022-11-29T15:22:42.084Z,35.40
2022-11-29T15:25:12.846Z,36.42
2022-11-29T15:27:49.523Z,32.78
2022-11-29T15:30:19.833Z,37.17
2022-11-29T15:32:46.376Z,33.05
2022-11-29T15:35:19.291Z,36.08
2022-11-29T15:37:48.448Z,35.88
2022-11-29T15:40:14.790Z,35.35
2022-11-29T15:42:43.272Z,39.85
2022-11-29T15:45:29.956Z,41.03
2022-11-29T15:48:11.281Z,39.47
2022-11-29T15:50:38.200Z,40.05
2022-11-29T15:53:05.981Z,42.40
2022-11-29T15:55:33.266Z,43.97
2022-11-29T15:58:03.971Z,33.15
2022-11-29T16:00:34.990Z,46.60
2022-11-29T16:03:02.226Z,40.65
2022-11-29T16:05:38.617Z,44.45
2022-11-29T16:08:07.260Z,40.42
2022-11-29T16:10:53.318Z,44.15
2022-11-29T16:13:25.746Z,42.25
2022-11-29T16:16:04.948Z,46.22
2022-11-29T16:18:31.504Z,42.00
2022-11-29T16:20:59.812Z,37.63
2022-11-29T16:23:36.276Z,43.15
2022-11-29T16:26:12.062Z,42.90
2022-11-29T16:28:43.115Z,40.97
2022-11-29T16:31:12.417Z,44.88
2022-11-29T16:33:43.564Z,48.97
2022-11-29T16:36:20.645Z,41.40
2022-11-29T16:38:48.360Z,37.50
2022-11-29T16:41:30.252Z,42.53
2022-11-29T16:43:57.994Z,39.75
2022-11-29T16:46:25.994Z,40.17
2022-11-29T16:48:53.502Z,56.08
2022-11-29T16:51:20.839Z,102.10
2022-11-29T16:53:53.571Z,74.72
2022-11-29T16:56:24.335Z,57.38
2022-11-29T16:59:20.512Z,52.80
2022-11-29T17:01:41.765Z,48.22
2022-11-29T17:04:08.702Z,46.58
2022-11-29T17:06:35.429Z,51.30
2022-11-29T17:09:01.815Z,44.70
2022-11-29T17:11:28.165Z,51.20
2022-11-29T17:13:54.502Z,44.13
2022-11-29T17:16:22.835Z,53.15
2022-11-29T17:18:49.574Z,41.53
2022-11-29T17:21:17.938Z,45.50
2022-11-29T17:23:45.115Z,51.50
2022-11-29T17:26:11.600Z,50.30
2022-11-29T17:28:39.846Z,53.63
2022-11-29T17:31:13.217Z,45.22
2022-11-29T17:33:39.838Z,51.70
2022-11-29T17:36:07.240Z,50.53
2022-11-29T17:38:33.880Z,49.08
2022-11-29T17:41:00.222Z,55.25
2022-11-29T17:43:26.565Z,51.42
2022-11-29T17:45:53.035Z,47.63
2022-11-29T17:48:19.436Z,46.80
2022-11-29T17:50:45.750Z,46.08
2022-11-29T17:53:12.084Z,43.33
2022-11-29T17:55:38.440Z,43.95
2022-11-29T17:58:04.795Z,51.20
2022-11-29T18:00:31.254Z,41.90
2022-11-29T18:02:57.688Z,39.58
2022-11-29T18:05:24.253Z,40.90
2022-11-29T18:07:59.733Z,34.67
2022-11-29T18:12:52.559Z,32.20
2022-11-29T18:15:18.951Z,34.65
2022-11-29T18:17:45.318Z,31.45
2022-11-29T18:20:13.622Z,30.27
2022-11-29T18:22:40.198Z,29.83
2022-11-29T18:25:37.171Z,32.42
2022-11-29T18:27:53.259Z,29.38
2022-11-29T18:30:19.669Z,30.83
2022-11-29T18:32:46.055Z,32.83
2022-11-29T18:35:12.418Z,32.45
2022-11-29T18:38:12.967Z,39.80
2022-11-29T18:40:25.188Z,34.22
2022-11-29T18:42:51.572Z,34.22
2022-11-29T18:45:18.072Z,28.13
2022-11-29T18:47:45.713Z,31.67
2022-11-29T18:50:12.448Z,31.10
2022-11-29T18:52:40.824Z,28.92
2022-11-29T18:55:07.567Z,29.83
2022-11-29T18:57:34.048Z,29.45
2022-11-29T19:00:00.474Z,31.73
2022-11-29T19:02:26.929Z,32.30
2022-11-29T19:04:53.340Z,27.67
2022-11-29T19:07:19.833Z,29.75
2022-11-29T19:09:46.288Z,29.90
2022-11-29T19:12:12.641Z,26.90
2022-11-29T19:14:42.739Z,24.73
2022-11-29T19:17:11.552Z,29.75
2022-11-29T19:19:38.240Z,27.15
2022-11-29T19:22:04.677Z,28.35
2022-11-29T19:24:31.054Z,25.90
2022-11-29T19:26:57.488Z,25.60
2022-11-29T19:29:24.021Z,27.17
2022-11-29T19:31:50.599Z,32.28
2022-11-29T19:34:16.971Z,31.13
2022-11-29T19:36:44.785Z,31.25
2022-11-29T19:39:12.935Z,31.15
2022-11-29T19:41:39.601Z,31.58
2022-11-29T19:44:07.200Z,31.73
2022-11-29T19:46:35.136Z,29.42
2022-11-29T19:49:02.265Z,27.90
2022-11-29T19:51:29.605Z,27.17
2022-11-29T19:53:57.243Z,29.45
2022-11-29T19:56:24.156Z,31.38
2022-11-29T19:58:50.717Z,31.67
2022-11-29T20:01:22.492Z,33.58
2022-11-29T20:03:49.397Z,30.30
2022-11-29T20:06:15.947Z,33.10
2022-11-29T20:08:42.623Z,27.40
2022-11-29T20:11:10.330Z,32.58
2022-11-29T20:13:37.708Z,28.30
2022-11-29T20:16:04.768Z,25.95
2022-11-29T20:18:32.142Z,29.00
2022-11-29T20:21:10.760Z,25.95
2022-11-29T20:23:38.318Z,29.17
2022-11-29T20:26:08.005Z,30.50
2022-11-29T20:28:34.801Z,28.23
2022-11-29T20:31:08.188Z,30.63
2022-11-29T20:33:34.651Z,27.25
2022-11-29T20:36:06.684Z,28.05
2022-11-29T20:38:37.426Z,27.20
2022-11-29T20:41:15.365Z,23.35
2022-11-29T20:43:50.392Z,24.70
2022-11-29T20:46:16.871Z,25.98
2022-11-29T20:48:43.422Z,26.60
2022-11-29T20:51:10.163Z,26.45
2022-11-29T20:53:40.735Z,28.30
2022-11-29T20:56:07.804Z,26.13
2022-11-29T20:58:34.426Z,34.15
2022-11-29T21:01:00.867Z,26.95
2022-11-29T21:03:28.336Z,25.95
2022-11-29T21:05:55.297Z,31.42
2022-11-29T21:08:22.102Z,27.63
2022-11-29T21:10:49.104Z,27.83
2022-11-29T21:13:15.974Z,30.73
2022-11-29T21:15:42.881Z,28.67
2022-11-29T21:18:16.341Z,28.52
2022-11-29T21:20:43.451Z,30.92
2022-11-29T21:23:09.803Z,29.92
2022-11-29T21:25:36.161Z,33.10
2022-11-29T21:28:02.949Z,31.88
2022-11-29T21:30:29.487Z,34.00
2022-11-29T21:32:56.043Z,30.77
2022-11-29T21:35:22.382Z,27.95
2022-11-29T21:37:51.060Z,28.38
2022-11-29T21:40:17.405Z,27.08
2022-11-29T21:42:43.791Z,27.05
2022-11-29T21:45:15.187Z,27.10
2022-11-29T21:47:42.476Z,32.13
2022-11-29T21:50:09.081Z,29.67
2022-11-29T21:52:35.423Z,27.40
2022-11-29T21:55:01.950Z,30.98
2022-11-29T21:57:28.354Z,31.02
2022-11-29T21:59:55.026Z,30.80
2022-11-29T22:02:21.481Z,24.48
2022-11-29T22:04:48.250Z,24.75
2022-11-29T22:07:14.987Z,26.63
2022-11-29T22:09:42.068Z,26.02
2022-11-29T22:12:31.900Z,27.23
2022-11-29T22:14:55.032Z,25.30
2022-11-29T22:17:21.401Z,26.83
2022-11-29T22:19:47.868Z,27.23
2022-11-29T22:22:14.262Z,29.48
2022-11-29T22:24:40.763Z,25.58
2022-11-29T22:27:07.208Z,30.58
2022-11-29T22:29:33.575Z,26.98
2022-11-29T22:32:01.173Z,28.83
2022-11-29T22:34:27.644Z,32.15
2022-11-29T22:36:54.200Z,28.15
2022-11-29T22:39:20.614Z,28.45
2022-11-29T22:41:52.321Z,30.20
2022-11-29T22:44:20.202Z,34.60
2022-11-29T22:46:46.653Z,33.42
2022-11-29T22:49:13.065Z,33.05
2022-11-29T22:51:39.499Z,34.17
2022-11-29T22:54:07.080Z,37.63
2022-11-29T22:56:34.840Z,32.50
2022-11-29T22:59:01.415Z,32.47
2022-11-29T23:01:28.834Z,24.13
2022-11-29T23:03:59.159Z,55.58
2022-11-29T23:06:27.257Z,33.25
2022-11-29T23:08:55.928Z,30.92
2022-11-29T23:11:23.555Z,35.15
2022-11-29T23:13:49.962Z,28.92
2022-11-29T23:16:17.550Z,33.47
2022-11-29T23:18:45.813Z,35.50
2022-11-29T23:21:13.530Z,32.28
2022-11-29T23:23:40.207Z,29.48
2022-11-29T23:26:07.093Z,29.45
2022-11-29T23:28:34.205Z,32.00
2022-11-29T23:31:00.831Z,30.77
2022-11-29T23:33:28.108Z,31.75
2022-11-29T23:36:03.833Z,29.73
2022-11-29T23:38:30.714Z,29.15
2022-11-29T23:40:57.160Z,26.88
2022-11-29T23:43:23.677Z,32.08
2022-11-29T23:45:50.194Z,32.10
2022-11-29T23:48:16.649Z,31.05
2022-11-29T23:50:43.693Z,34.22
2022-11-29T23:53:13.744Z,28.63
2022-11-29T23:55:40.271Z,30.85
2022-11-29T23:58:06.774Z,33.60
